Time;durP1;ratioP1;P1;durP2;ratioP2;P2;SDS_P1;SDS_P2;PMS_P1;PMS_P2;Temp;Humidity;BMP_temperature;BMP_pressure;BME280_temperature;BME280_humidity;BME280_pressure;Samples;Min_cycle;Max_cycle;Signal;HPM_P1;HPM_P2
2023/06/13 00:04:57;;;;;;;6.30;3.60;;;;;;;9.93;70.68;98880.83;224652;1290;22559;-77
2023/06/13 00:10:26;;;;;;;4.90;3.70;;;;;;;9.89;70.83;98875.24;224803;1287;23222;-80
2023/06/13 00:16:41;;;;;;;5.60;3.70;;;;;;;9.83;71.12;98873.81;224612;1280;24359;-80
2023/06/13 00:22:13;;;;;;;3.90;3.40;;;;;;;9.73;71.57;98871.09;224567;1290;22750;-79
2023/06/13 00:28:16;;;;;;;;;;;;;;;;;;;;;
2023/06/13 00:34:00;;;;;;;4.70;3.90;;;;;;;9.54;71.69;98866.14;225355;1282;22536;-80
2023/06/13 00:39:09;;;;;;;5.80;3.80;;;;;;;9.46;71.98;98860.60;225657;1279;24199;-79
2023/06/13 00:44:38;;;;;;;8.00;4.00;;;;;;;9.37;72.33;98857.77;225679;1282;22651;-80
2023/06/13 00:50:47;;;;;;;6.90;4.10;;;;;;;9.30;72.80;98852.31;225560;1281;22540;-80
2023/06/13 00:56:04;;;;;;;7.60;4.70;;;;;;;9.21;72.46;98845.05;225489;1280;22505;-79
2023/06/13 01:01:47;;;;;;;5.30;3.50;;;;;;;9.11;72.90;98844.48;225665;1281;22488;-80
2023/06/13 01:07:25;;;;;;;6.40;4.20;;;;;;;9.01;73.14;98842.19;225527;1280;22540;-79
2023/06/13 01:13:34;;;;;;;;;;;;;;;;;;;;;
2023/06/13 01:18:44;;;;;;;5.40;4.20;;;;;;;8.89;73.80;98842.64;226173;1279;22501;-80
2023/06/13 01:24:32;;;;;;;5.70;4.20;;;;;;;8.86;73.76;98842.53;226014;1279;26096;-79
2023/06/13 01:30:11;;;;;;;6.10;4.30;;;;;;;8.81;74.27;98846.90;226212;1279;22548;-79
2023/06/13 01:35:56;;;;;;;6.70;4.60;;;;;;;8.77;74.41;98843.01;225621;1279;22540;-79
2023/06/13 01:41:32;;;;;;;7.50;4.50;;;;;;;8.72;74.45;98843.02;225599;1281;22548;-81
2023/06/13 01:48:08;;;;;;;5.70;4.70;;;;;;;8.68;74.80;98841.20;225708;1269;22573;-78
2023/06/13 02:00:08;;;;;;;;;;;;;;;;;;;;;
2023/06/13 02:05:42;;;;;;;6.70;4.90;;;;;;;8.57;75.47;98823.98;225988;1277;22468;-79
2023/06/13 02:11:47;;;;;;;9.30;4.70;;;;;;;8.56;75.04;98822.25;226114;1268;22540;-80
2023/06/13 02:16:57;;;;;;;8.70;4.40;;;;;;;8.55;75.67;98824.43;226018;1279;22610;-80
2023/06/13 02:22:08;;;;;;;5.80;4.80;;;;;;;8.54;75.50;98821.90;226023;1277;22571;-79
2023/06/13 02:27:26;;;;;;;8.40;5.60;;;;;;;8.54;75.62;98824.73;225879;1279;22546;-81
2023/06/13 02:33:05;;;;;;;;;;;;;;;;;;;;;
2023/06/13 02:39:09;;;;;;;6.60;5.40;;;;;;;8.55;75.95;98824.06;226045;1279;22550;-80
2023/06/13 02:44:50;;;;;;;;;;;;;;;;;;;;;
2023/06/13 02:50:33;;;;;;;7.90;6.00;;;;;;;8.56;76.06;98826.50;226161;1279;22538;-79
2023/06/13 02:56:29;;;;;;;7.90;5.70;;;;;;;8.55;76.29;98826.93;226097;1265;22546;-80
2023/06/13 03:02:37;;;;;;;10.20;6.20;;;;;;;8.55;76.58;98835.48;225708;1281;22547;-80
2023/06/13 03:08:26;;;;;;;9.20;6.40;;;;;;;8.56;76.48;98827.18;225688;1281;22701;-80
2023/06/13 03:14:16;;;;;;;9.70;5.80;;;;;;;8.59;76.57;98826.85;225626;1281;22549;-80
2023/06/13 03:20:28;;;;;;;11.80;7.60;;;;;;;8.71;76.51;98825.56;225550;1266;22543;-79
2023/06/13 03:32:33;;;;;;;7.40;5.20;;;;;;;10.04;76.09;98825.71;226020;1279;23050;-80
2023/06/13 03:38:12;;;;;;;;;;;;;;;;;;;;;
2023/06/13 03:43:43;;;;;;;9.10;5.10;;;;;;;11.23;74.34;98822.21;225995;1279;24301;-80
2023/06/13 03:49:03;;;;;;;6.00;5.20;;;;;;;11.71;73.42;98825.38;225978;1279;22536;-79
2023/06/13 03:54:45;;;;;;;7.50;5.60;;;;;;;12.13;72.83;98819.45;226056;1277;22539;-80
2023/06/13 04:00:13;;;;;;;7.20;5.10;;;;;;;12.52;72.19;98812.16;225974;1279;22579;-80
2023/06/13 04:06:03;;;;;;;7.30;5.60;;;;;;;12.77;71.61;98805.34;225982;1270;22533;-80
2023/06/13 04:11:10;;;;;;;6.70;6.00;;;;;;;12.83;71.30;98810.12;226099;1279;22557;-79
2023/06/13 04:16:22;;;;;;;8.90;5.80;;;;;;;12.82;70.94;98816.73;225956;1280;22540;-80
2023/06/13 04:21:31;;;;;;;6.40;5.40;;;;;;;12.76;70.65;98814.80;226183;1279;22586;-79
2023/06/13 04:26:50;;;;;;;10.00;5.40;;;;;;;12.73;70.85;98809.55;225943;1279;22929;-81
2023/06/13 04:32:37;;;;;;;8.20;5.10;;;;;;;12.62;70.53;98805.88;225999;1279;22591;-79
2023/06/13 04:37:59;;;;;;;;;;;;;;;;;;;;;
2023/06/13 04:43:34;;;;;;;;;;;;;;;12.41;70.54;98809.48;225874;1280;22533;-79
2023/06/13 04:48:44;;;;;;;8.00;5.70;;;;;;;12.29;70.76;98805.91;225946;1280;22617;-80
2023/06/13 04:54:09;;;;;;;7.90;5.30;;;;;;;12.21;71.06;98797.45;225723;1267;22541;-80
2023/06/13 04:59:42;;;;;;;7.30;5.30;;;;;;;12.23;71.49;98801.92;225920;1280;22576;-80
2023/06/13 05:04:47;;;;;;;7.60;5.60;;;;;;;12.25;71.60;98804.63;225680;1280;25105;-80
2023/06/13 05:10:47;;;;;;;;;;;;;;;;;;;;;
2023/06/13 05:16:29;;;;;;;7.30;5.70;;;;;;;12.46;72.46;98785.33;225639;1281;22667;-79
2023/06/13 05:21:36;;;;;;;6.30;5.10;;;;;;;12.62;72.40;98794.09;225490;1281;22550;-80
2023/06/13 05:26:40;;;;;;;8.10;6.00;;;;;;;12.78;72.44;98797.75;225489;1281;22563;-79
2023/06/13 05:31:58;;;;;;;8.10;5.60;;;;;;;12.89;72.35;98794.19;225670;1268;23298;-80
2023/06/13 05:37:17;;;;;;;7.90;5.80;;;;;;;13.01;72.29;98794.16;225942;1279;22547;-79
2023/06/13 05:42:59;;;;;;;;;;;;;;;;;;;;;
2023/06/13 05:48:23;;;;;;;5.80;4.90;;;;;;;13.27;72.12;98791.20;226044;1278;25341;-78
2023/06/13 05:53:46;;;;;;;5.70;4.60;;;;;;;13.41;71.72;98786.50;225945;1276;25156;-78
2023/06/13 05:58:49;;;;;;;6.00;4.60;;;;;;;13.50;71.15;98786.90;225985;1275;26202;-77
2023/06/13 06:03:52;;;;;;;7.70;4.90;;;;;;;13.59;70.84;98786.31;225464;1267;22612;-77
2023/06/13 06:08:58;;;;;;;6.90;4.70;;;;;;;13.75;71.06;98786.16;225658;1256;137975;-77
2023/06/13 06:14:04;;;;;;;5.60;4.00;;;;;;;13.90;70.52;98778.98;225782;1268;138216;-76
2023/06/13 06:19:09;;;;;;;5.60;4.10;;;;;;;14.02;69.94;98780.44;225761;1256;138816;-78
2023/06/13 06:24:12;;;;;;;6.40;5.00;;;;;;;14.16;69.56;98782.79;225643;1260;22560;-78
2023/06/13 06:29:31;;;;;;;5.70;4.60;;;;;;;14.32;69.29;98779.45;225305;1264;137926;-77
2023/06/13 06:34:33;;;;;;;;;;;;;;;14.54;68.92;98781.87;225496;1257;138038;-78
2023/06/13 06:39:50;;;;;;;4.60;4.10;;;;;;;14.73;67.64;98774.46;225460;1269;124319;-78
2023/06/13 06:44:56;;;;;;;6.50;4.90;;;;;;;14.92;67.22;98773.80;225629;1260;137603;-78
2023/06/13 06:49:59;;;;;;;6.80;6.00;;;;;;;15.12;66.93;98772.25;225684;1262;136994;-77
2023/06/13 06:55:14;;;;;;;20.00;7.10;;;;;;;15.29;65.89;98771.20;225640;1268;137529;-78
2023/06/13 07:00:28;;;;;;;8.40;4.30;;;;;;;15.40;65.23;98770.08;225993;1271;22491;-77
2023/06/13 07:05:31;;;;;;;9.80;4.10;;;;;;;15.53;64.61;98767.69;225507;1278;136758;-79
2023/06/13 07:10:45;;;;;;;6.20;4.10;;;;;;;15.61;64.13;98763.06;225551;1278;137309;-79
2023/06/13 07:15:48;;;;;;;7.50;4.20;;;;;;;15.67;63.82;98763.75;225532;1264;137540;-78
2023/06/13 07:21:00;;;;;;;7.20;4.20;;;;;;;15.79;63.21;98762.80;225747;1276;137487;-78
2023/06/13 07:26:30;;;;;;;6.40;4.20;;;;;;;15.87;62.86;98756.40;225594;1280;137765;-76
2023/06/13 07:31:34;;;;;;;5.40;3.80;;;;;;;16.03;62.48;98752.64;225394;1267;137766;-78
2023/06/13 07:36:37;;;;;;;5.80;3.50;;;;;;;16.32;62.56;98759.41;225409;1273;22538;-78
2023/06/13 07:41:46;;;;;;;5.40;3.60;;;;;;;16.62;61.53;98757.77;225440;1279;22549;-80
2023/06/13 07:46:54;;;;;;;4.70;3.20;;;;;;;16.84;60.69;98746.39;225443;1272;136657;-78
2023/06/13 07:52:18;;;;;;;4.70;3.20;;;;;;;16.98;59.97;98741.77;225662;1260;137492;-79
2023/06/13 07:57:21;;;;;;;9.80;2.60;;;;;;;17.10;59.65;98742.18;225263;1264;137674;-78
2023/06/13 08:02:34;;;;;;;4.30;2.70;;;;;;;17.22;58.81;98741.36;225157;1276;138124;-77
2023/06/13 08:07:44;;;;;;;4.00;3.10;;;;;;;17.37;58.84;98741.73;225295;1273;137134;-78
2023/06/13 08:12:47;;;;;;;5.70;2.60;;;;;;;17.55;58.39;98741.14;225285;1279;137533;-79
2023/06/13 08:17:52;;;;;;;4.70;2.40;;;;;;;17.67;57.85;98747.12;225402;1276;22575;-79
2023/06/13 08:23:18;;;;;;;4.30;2.70;;;;;;;17.81;57.21;98742.00;225355;1273;137180;-76
2023/06/13 08:28:22;;;;;;;5.10;3.00;;;;;;;17.93;56.98;98742.02;227741;1278;137415;-77
2023/06/13 08:33:25;;;;;;;3.20;2.50;;;;;;;18.09;56.59;98736.73;227805;1273;136889;-79
2023/06/13 08:38:31;;;;;;;4.10;2.80;;;;;;;18.20;56.02;98732.41;227810;1267;137568;-77
2023/06/13 08:43:53;;;;;;;2.90;2.60;;;;;;;18.31;55.44;98729.19;227571;1267;137523;-76
2023/06/13 08:48:55;;;;;;;4.60;2.60;;;;;;;18.44;55.43;98723.07;227775;1273;137474;-76
2023/06/13 08:54:00;;;;;;;5.00;3.20;;;;;;;18.51;55.53;98733.75;228006;1277;22152;-77
2023/06/13 08:59:26;;;;;;;4.60;3.00;;;;;;;18.74;56.36;98731.16;227567;1277;137547;-76
2023/06/13 09:04:31;;;;;;;4.80;3.10;;;;;;;19.11;55.86;98734.77;227849;1272;138505;-76
2023/06/13 09:09:34;;;;;;;2.60;2.40;;;;;;;19.45;54.85;98736.74;227527;1277;138119;-76
2023/06/13 09:14:37;;;;;;;4.20;2.90;;;;;;;19.55;53.59;98737.03;227617;1276;137610;-76
2023/06/13 09:19:39;;;;;;;3.00;2.50;;;;;;;19.62;53.80;98736.04;227645;1276;138191;-77
2023/06/13 09:24:44;;;;;;;2.60;2.40;;;;;;;19.81;53.95;98727.70;227945;1273;25035;-77
2023/06/13 09:29:49;;;;;;;4.70;2.50;;;;;;;20.23;54.06;98719.14;227930;1277;22301;-76
2023/06/13 09:34:52;;;;;;;4.30;2.50;;;;;;;20.46;52.66;98714.30;227785;1276;137735;-76
2023/06/13 09:39:54;;;;;;;3.90;2.40;;;;;;;20.55;52.17;98708.39;227795;1265;137554;-76
2023/06/13 09:45:15;;;;;;;4.10;2.70;;;;;;;20.69;52.18;98705.88;227829;1277;138147;-75
2023/06/13 09:50:18;;;;;;;5.00;2.90;;;;;;;20.62;51.82;98703.52;227690;1276;138714;-76
2023/06/13 09:55:21;;;;;;;3.20;2.80;;;;;;;20.67;51.62;98695.17;227864;1270;137628;-76
2023/06/13 10:00:23;;;;;;;3.40;2.40;;;;;;;20.61;51.68;98693.67;227818;1260;22145;-76
2023/06/13 10:05:25;;;;;;;4.00;2.60;;;;;;;20.70;51.52;98686.77;227821;1278;137649;-76
2023/06/13 10:10:27;;;;;;;4.40;2.90;;;;;;;20.77;50.98;98687.16;227764;1278;137789;-76
2023/06/13 10:16:04;;;;;;;5.20;2.30;;;;;;;20.59;50.59;98680.02;227757;1276;137478;-78
2023/06/13 10:21:10;;;;;;;5.30;2.50;;;;;;;20.83;51.30;98676.35;224771;1277;137531;-75
2023/06/13 10:26:19;;;;;;;4.20;2.70;;;;;;;21.09;51.07;98675.57;224989;1276;137516;-77
2023/06/13 10:32:08;;;;;;;2.70;2.10;;;;;;;21.17;50.09;98667.25;224810;1267;136884;-80
2023/06/13 10:37:19;;;;;;;5.50;2.80;;;;;;;21.44;49.91;98659.86;224979;1278;137706;-77
2023/06/13 10:42:36;;;;;;;2.70;2.50;;;;;;;21.45;49.52;98658.99;225249;1274;23359;-77
2023/06/13 10:47:38;;;;;;;4.80;2.90;;;;;;;21.63;49.11;98654.83;227672;1277;137432;-79
2023/06/13 10:52:49;;;;;;;6.70;2.90;;;;;;;21.70;49.13;98648.66;227875;1275;137477;-80
2023/06/13 10:57:53;;;;;;;4.00;2.50;;;;;;;21.56;49.07;98650.70;227750;1271;138072;-78
2023/06/13 11:03:05;;;;;;;5.40;2.30;;;;;;;21.56;48.68;98653.77;227607;1273;137581;-78
2023/06/13 11:08:14;;;;;;;5.00;2.40;;;;;;;21.85;48.33;98651.05;227918;1264;138037;-79
2023/06/13 11:13:16;;;;;;;6.80;3.00;;;;;;;22.25;48.27;98645.56;227737;1278;138349;-77
2023/06/13 11:18:22;;;;;;;5.40;3.00;;;;;;;22.34;48.15;98641.44;228017;1276;23201;-78
2023/06/13 11:23:38;;;;;;;3.90;2.80;;;;;;;22.29;47.94;98638.73;227901;1278;137052;-79
2023/06/13 11:28:40;;;;;;;9.00;3.20;;;;;;;22.18;47.40;98633.34;227743;1271;137439;-77
2023/06/13 11:33:51;;;;;;;4.20;2.60;;;;;;;22.33;47.26;98626.37;227808;1272;137470;-77
2023/06/13 11:38:59;;;;;;;4.20;3.30;;;;;;;22.65;47.26;98623.41;227935;1268;137411;-77
2023/06/13 11:44:02;;;;;;;7.20;2.90;;;;;;;22.58;47.25;98618.94;226268;1274;137659;-76
2023/06/13 11:49:08;;;;;;;3.20;2.50;;;;;;;22.21;47.19;98613.80;224891;1277;137543;-76
2023/06/13 11:54:28;;;;;;;5.20;2.80;;;;;;;22.17;47.94;98609.34;225184;1274;22638;-79
2023/06/13 11:59:44;;;;;;;3.00;2.70;;;;;;;22.49;47.65;98601.81;225099;1278;137998;-75
2023/06/13 12:04:47;;;;;;;3.50;2.90;;;;;;;22.75;47.02;98595.51;224937;1272;137376;-75
2023/06/13 12:09:57;;;;;;;3.60;2.70;;;;;;;22.92;46.98;98599.76;224905;1271;137788;-74
2023/06/13 12:15:02;;;;;;;2.40;2.20;;;;;;;22.49;47.12;98595.67;224992;1261;137601;-77
2023/06/13 12:20:11;;;;;;;3.50;2.70;;;;;;;22.11;47.57;98590.22;224971;1256;137658;-76
2023/06/13 12:25:14;;;;;;;4.20;3.00;;;;;;;22.18;48.00;98589.09;227725;1277;137598;-74
2023/06/13 12:30:23;;;;;;;9.30;3.70;;;;;;;22.66;48.05;98585.50;228071;1271;22423;-77
2023/06/13 12:35:26;;;;;;;3.40;2.90;;;;;;;22.99;46.47;98580.55;227742;1278;137235;-76
2023/06/13 12:40:33;;;;;;;4.60;3.00;;;;;;;22.50;45.43;98574.88;227920;1274;137761;-75
2023/06/13 12:45:35;;;;;;;4.50;2.80;;;;;;;22.16;46.83;98575.75;227697;1269;137603;-75
2023/06/13 12:50:39;;;;;;;3.30;2.70;;;;;;;21.86;47.45;98570.72;227711;1277;137471;-74
2023/06/13 12:55:43;;;;;;;3.10;2.70;;;;;;;21.59;48.05;98571.72;227868;1271;138468;-73
2023/06/13 13:00:52;;;;;;;4.40;2.90;;;;;;;21.44;48.82;98566.40;227786;1276;137546;-75
2023/06/13 13:05:55;;;;;;;4.00;3.00;;;;;;;21.44;48.59;98561.94;227892;1276;22322;-77
2023/06/13 13:10:57;;;;;;;3.30;2.40;;;;;;;21.57;47.94;98559.94;227952;1275;137827;-74
2023/06/13 13:15:59;;;;;;;5.30;2.80;;;;;;;21.70;47.84;98561.11;227749;1276;137792;-78
2023/06/13 13:21:02;;;;;;;4.70;2.80;;;;;;;21.84;48.30;98558.77;227877;1272;137589;-77
2023/06/13 13:26:04;;;;;;;6.40;2.70;;;;;;;21.82;48.48;98556.88;227912;1263;137666;-77
2023/06/13 13:31:07;;;;;;;3.40;2.80;;;;;;;21.70;48.25;98556.85;227801;1255;137474;-74
2023/06/13 13:36:10;;;;;;;2.80;2.50;;;;;;;21.74;48.27;98552.77;227770;1277;22328;-76
2023/06/13 13:41:12;;;;;;;2.90;2.50;;;;;;;21.86;48.32;98555.65;225286;1271;137263;-75
2023/06/13 13:46:14;;;;;;;4.00;2.30;;;;;;;22.16;48.13;98548.56;224968;1270;137424;-76
2023/06/13 13:51:37;;;;;;;3.10;2.80;;;;;;;22.49;47.69;98542.04;224840;1262;138489;-78
2023/06/13 13:56:43;;;;;;;3.80;3.00;;;;;;;22.78;47.22;98544.54;226909;1277;137711;-75
2023/06/13 14:01:46;;;;;;;3.10;2.50;;;;;;;22.84;46.86;98543.29;225662;1271;137602;-75
2023/06/13 14:06:51;;;;;;;3.90;2.90;;;;;;;22.49;46.48;98545.43;226183;1271;22536;-74
2023/06/13 14:11:57;;;;;;;4.10;3.10;;;;;;;22.09;46.59;98553.98;226318;1274;23763;-73
2023/06/13 14:16:59;;;;;;;3.20;2.40;;;;;;;21.91;47.36;98556.69;226140;1278;22858;-73
2023/06/13 14:22:03;;;;;;;4.70;2.60;;;;;;;21.83;48.17;98558.23;225903;1277;22598;-74
2023/06/13 14:27:07;;;;;;;4.40;2.90;;;;;;;21.85;48.93;98550.05;225862;1274;22546;-75
2023/06/13 14:32:09;;;;;;;5.20;3.40;;;;;;;21.94;49.03;98554.77;226277;1272;22540;-73
2023/06/13 14:37:12;;;;;;;10.60;2.50;;;;;;;22.01;49.04;98557.20;226150;1278;22556;-74
2023/06/13 14:42:15;;;;;;;3.40;2.50;;;;;;;22.21;49.00;98559.00;226272;1267;22536;-75
2023/06/13 14:47:19;;;;;;;6.70;2.80;;;;;;;22.44;48.81;98551.30;226265;1273;22550;-74
2023/06/13 14:52:21;;;;;;;4.70;3.10;;;;;;;22.64;48.13;98549.77;226213;1278;25333;-74
2023/06/13 14:57:26;;;;;;;4.50;2.60;;;;;;;22.67;47.51;98553.55;226006;1273;22564;-75
2023/06/13 15:02:29;;;;;;;6.00;2.30;;;;;;;22.68;47.29;98555.04;226250;1278;22546;-74
2023/06/13 15:07:33;;;;;;;2.70;2.40;;;;;;;22.48;47.90;98550.48;226049;1278;22536;-74
2023/06/13 15:12:44;;;;;;;2.50;2.30;;;;;;;22.04;47.76;98552.85;226188;1274;23142;-74
2023/06/13 15:17:47;;;;;;;3.50;2.20;;;;;;;21.53;48.44;98548.26;226254;1271;22536;-74
2023/06/13 15:22:51;;;;;;;7.20;2.30;;;;;;;21.16;49.02;98545.73;226198;1274;23046;-74
2023/06/13 15:27:53;;;;;;;3.90;2.20;;;;;;;20.77;49.54;98551.54;226382;1274;22562;-74
2023/06/13 15:32:55;;;;;;;6.40;2.80;;;;;;;20.40;49.98;98555.20;226342;1278;23331;-73
2023/06/13 15:37:58;;;;;;;3.90;2.30;;;;;;;20.18;50.40;98554.41;226176;1276;22534;-73
2023/06/13 15:43:01;;;;;;;7.40;2.00;;;;;;;20.11;50.73;98553.54;226245;1275;22574;-72
2023/06/13 15:48:07;;;;;;;8.50;2.60;;;;;;;20.15;50.92;98555.94;226249;1278;22536;-74
2023/06/13 15:53:10;;;;;;;2.80;1.90;;;;;;;20.26;51.14;98550.34;226285;1278;22567;-74
2023/06/13 15:58:14;;;;;;;2.50;2.30;;;;;;;20.55;51.28;98555.10;226263;1271;22636;-75
2023/06/13 16:03:25;;;;;;;5.80;2.30;;;;;;;20.78;51.10;98556.12;226241;1276;22928;-73
2023/06/13 16:08:29;;;;;;;2.20;1.80;;;;;;;20.59;50.32;98563.19;226201;1274;22527;-75
2023/06/13 16:13:35;;;;;;;2.10;1.90;;;;;;;20.18;50.57;98563.91;226206;1276;22618;-74
2023/06/13 16:18:39;;;;;;;4.20;1.90;;;;;;;19.97;51.19;98561.73;226275;1278;23049;-74
2023/06/13 16:23:42;;;;;;;2.60;1.70;;;;;;;20.05;51.67;98575.02;226184;1278;22543;-73
2023/06/13 16:28:45;;;;;;;2.40;1.70;;;;;;;20.13;51.31;98573.09;226217;1276;22569;-74
2023/06/13 16:33:55;;;;;;;5.00;1.40;;;;;;;20.00;51.43;98576.94;226255;1278;22539;-74
2023/06/13 16:38:57;;;;;;;2.70;1.70;;;;;;;19.80;51.42;98577.66;226182;1275;22546;-74
2023/06/13 16:44:04;;;;;;;2.20;1.40;;;;;;;19.70;51.65;98580.98;226263;1277;22564;-74
2023/06/13 16:49:10;;;;;;;3.00;1.50;;;;;;;19.73;51.80;98578.44;226255;1278;22533;-74
2023/06/13 16:54:20;;;;;;;2.90;1.70;;;;;;;19.83;51.77;98568.95;226299;1274;22567;-74
2023/06/13 16:59:23;;;;;;;1.80;1.70;;;;;;;19.80;51.68;98571.33;226227;1276;22661;-74
2023/06/13 17:04:25;;;;;;;3.30;1.70;;;;;;;19.60;51.53;98580.74;226013;1277;25346;-73
2023/06/13 17:09:53;;;;;;;4.70;2.00;;;;;;;19.27;52.08;98585.70;226142;1279;22533;-73
2023/06/13 17:14:56;;;;;;;2.50;1.80;;;;;;;19.09;52.71;98587.17;225994;1277;22554;-74
2023/06/13 17:20:01;;;;;;;2.30;1.60;;;;;;;18.74;53.25;98584.33;225910;1274;22643;-73
2023/06/13 17:25:04;;;;;;;3.50;1.80;;;;;;;18.36;53.75;98578.73;225953;1277;22536;-73
2023/06/13 17:30:17;;;;;;;2.50;2.10;;;;;;;18.02;54.21;98579.64;226120;1278;22515;-74
2023/06/13 17:35:24;;;;;;;2.20;2.00;;;;;;;17.77;54.36;98583.42;226148;1277;22535;-74
2023/06/13 17:40:41;;;;;;;2.10;1.90;;;;;;;17.56;54.72;98589.42;226014;1277;23268;-73
2023/06/13 17:45:49;;;;;;;3.10;1.70;;;;;;;17.67;55.40;98593.33;226172;1278;22676;-72
2023/06/13 17:50:52;;;;;;;4.40;2.20;;;;;;;18.24;55.38;98592.96;226196;1276;22530;-73
2023/06/13 17:56:03;;;;;;;2.90;2.50;;;;;;;18.14;54.51;98600.52;226279;1278;22544;-73
2023/06/13 18:01:16;;;;;;;2.10;1.90;;;;;;;17.90;54.59;98595.09;226182;1276;22548;-73
2023/06/13 18:06:21;;;;;;;3.40;2.30;;;;;;;17.63;55.01;98596.93;226202;1278;22554;-73
2023/06/13 18:11:24;;;;;;;1.80;1.60;;;;;;;17.34;55.46;98599.86;226178;1278;22598;-73
2023/06/13 18:16:35;;;;;;;4.70;1.90;;;;;;;17.07;55.80;98606.55;226056;1274;265267;-72
2023/06/13 18:21:39;;;;;;;2.20;1.80;;;;;;;16.78;56.23;98615.55;226211;1274;22550;-74
2023/06/13 18:26:48;;;;;;;3.50;1.90;;;;;;;16.48;56.39;98609.70;226216;1267;22544;-72
2023/06/13 18:31:50;;;;;;;2.00;1.80;;;;;;;16.19;57.24;98614.30;226255;1274;22537;-73
2023/06/13 18:36:53;;;;;;;2.60;1.80;;;;;;;15.91;57.61;98623.38;226200;1276;22670;-73
2023/06/13 18:41:56;;;;;;;2.70;1.60;;;;;;;15.62;58.21;98631.32;226199;1278;22537;-74
2023/06/13 18:47:04;;;;;;;2.10;1.60;;;;;;;15.35;58.62;98637.08;225939;1277;22536;-74
2023/06/13 18:52:27;;;;;;;1.70;1.50;;;;;;;15.09;58.96;98642.82;226175;1274;23041;-73
2023/06/13 18:57:29;;;;;;;2.50;2.00;;;;;;;14.87;59.74;98651.27;225549;1278;22581;-73
2023/06/13 19:02:35;;;;;;;1.80;1.40;;;;;;;14.69;60.36;98652.61;225647;1275;22540;-72
2023/06/13 19:07:38;;;;;;;2.20;1.50;;;;;;;14.52;60.57;98654.70;225647;1281;24222;-73
2023/06/13 19:12:42;;;;;;;2.60;1.40;;;;;;;14.34;61.11;98655.96;225706;1278;22554;-73
2023/06/13 19:17:55;;;;;;;6.80;2.80;;;;;;;14.17;61.75;98662.28;225705;1278;22543;-73
2023/06/13 19:23:06;;;;;;;2.60;1.40;;;;;;;14.01;62.17;98664.30;225697;1282;22550;-73
2023/06/13 19:28:09;;;;;;;1.90;1.50;;;;;;;13.83;62.68;98671.53;225873;1278;22614;-73
2023/06/13 19:33:21;;;;;;;1.80;1.60;;;;;;;13.68;62.94;98675.91;225949;1278;22546;-73
2023/06/13 19:38:34;;;;;;;4.60;1.90;;;;;;;13.54;63.31;98680.63;226155;1274;22621;-74
2023/06/13 19:43:36;;;;;;;1.90;1.40;;;;;;;13.40;63.70;98682.71;226110;1275;22543;-73
2023/06/13 19:48:38;;;;;;;2.60;1.90;;;;;;;13.27;64.10;98683.19;226135;1267;22542;-73
2023/06/13 19:53:41;;;;;;;2.00;1.60;;;;;;;13.15;64.33;98689.05;226194;1276;23270;-74
2023/06/13 19:58:44;;;;;;;1.70;1.50;;;;;;;13.02;64.73;98688.27;226205;1275;22615;-73
2023/06/13 20:03:51;;;;;;;1.50;1.40;;;;;;;12.90;65.20;98688.02;226173;1277;22544;-73
2023/06/13 20:08:53;;;;;;;4.40;1.30;;;;;;;12.77;65.50;98689.05;226208;1278;22553;-73
2023/06/13 20:14:02;;;;;;;2.20;1.90;;;;;;;12.63;65.87;98692.02;226147;1278;22544;-73
2023/06/13 20:19:05;;;;;;;2.00;1.70;;;;;;;12.51;66.31;98695.68;226206;1278;22688;-73
2023/06/13 20:24:07;;;;;;;1.70;1.60;;;;;;;12.36;66.85;98691.55;226167;1277;22536;-73
2023/06/13 20:29:10;;;;;;;2.40;1.90;;;;;;;12.23;67.26;98696.29;225977;1278;22544;-72
2023/06/13 20:34:13;;;;;;;3.40;1.60;;;;;;;12.11;67.66;98698.59;225969;1277;22560;-73
2023/06/13 20:39:16;;;;;;;2.00;1.90;;;;;;;12.02;68.19;98702.27;226190;1274;22544;-73
2023/06/13 20:44:19;;;;;;;2.30;2.10;;;;;;;11.92;68.37;98701.58;226206;1274;23082;-73
2023/06/13 20:49:30;;;;;;;2.60;2.20;;;;;;;11.81;68.74;98701.50;226179;1278;22563;-74
2023/06/13 20:54:33;;;;;;;2.80;2.10;;;;;;;11.70;68.99;98705.16;225978;1277;22587;-73
2023/06/13 20:59:36;;;;;;;2.60;2.20;;;;;;;11.60;69.30;98701.08;226182;1278;22575;-74
2023/06/13 21:05:05;;;;;;;3.90;2.40;;;;;;;11.52;69.63;98705.08;226203;1277;22548;-72
2023/06/13 21:10:08;;;;;;;2.90;2.50;;;;;;;11.42;69.81;98706.89;226204;1274;22547;-75
2023/06/13 21:15:18;;;;;;;3.00;2.70;;;;;;;11.32;70.22;98706.02;226218;1278;22559;-73
2023/06/13 21:20:27;;;;;;;4.60;2.60;;;;;;;11.21;70.24;98710.55;226187;1275;22917;-77
2023/06/13 21:25:30;;;;;;;6.50;2.60;;;;;;;11.11;70.54;98706.54;226142;1278;22553;-75
2023/06/13 21:30:32;;;;;;;3.50;3.20;;;;;;;11.01;70.92;98708.91;226198;1276;22536;-76
2023/06/13 21:35:34;;;;;;;3.90;2.90;;;;;;;10.92;71.17;98712.27;226155;1277;22530;-76
2023/06/13 21:40:57;;;;;;;3.50;3.20;;;;;;;10.85;71.41;98713.98;226176;1278;22535;-76
2023/06/13 21:46:02;;;;;;;3.90;3.60;;;;;;;10.79;71.83;98715.14;226206;1277;22549;-76
2023/06/13 21:51:12;;;;;;;4.60;3.40;;;;;;;10.75;72.16;98722.56;226198;1278;22636;-76
2023/06/13 21:56:34;;;;;;;3.90;3.40;;;;;;;10.71;72.24;98721.10;226008;1277;22623;-76
2023/06/13 22:01:38;;;;;;;4.40;3.70;;;;;;;10.68;72.47;98725.02;226222;1276;22579;-77
2023/06/13 22:06:54;;;;;;;6.10;3.90;;;;;;;10.66;72.70;98722.30;226096;1278;22548;-75
2023/06/13 22:12:02;;;;;;;6.00;4.00;;;;;;;10.63;72.80;98721.77;226184;1274;25229;-76
2023/06/13 22:17:08;;;;;;;4.40;4.00;;;;;;;10.60;73.35;98722.84;226237;1274;22548;-75
2023/06/13 22:22:23;;;;;;;4.60;3.90;;;;;;;10.55;73.35;98723.92;226142;1256;22536;-75
2023/06/13 22:27:37;;;;;;;4.00;3.60;;;;;;;10.51;73.53;98727.61;226293;1268;22544;-76
2023/06/13 22:32:39;;;;;;;4.50;3.50;;;;;;;10.46;73.68;98724.94;226147;1256;22536;-76
2023/06/13 22:37:47;;;;;;;5.20;4.00;;;;;;;10.40;73.89;98721.19;226121;1276;22536;-76
2023/06/13 22:43:11;;;;;;;6.20;4.00;;;;;;;10.34;74.06;98719.84;226172;1276;22548;-76
2023/06/13 22:48:26;;;;;;;5.30;4.70;;;;;;;10.29;74.55;98718.75;226208;1275;22634;-75
2023/06/13 22:53:36;;;;;;;4.90;4.00;;;;;;;10.24;74.62;98712.77;226191;1274;22548;-75
2023/06/13 22:58:39;;;;;;;8.30;6.10;;;;;;;10.21;75.25;98710.36;226122;1278;22584;-75
2023/06/13 23:03:49;;;;;;;6.90;5.90;;;;;;;10.18;75.23;98707.55;226178;1278;22544;-75
2023/06/13 23:09:04;;;;;;;7.70;6.30;;;;;;;10.14;75.40;98706.95;226272;1278;25284;-75
2023/06/13 23:14:09;;;;;;;10.50;6.50;;;;;;;10.10;75.54;98701.02;226205;1278;22606;-75
2023/06/13 23:19:14;;;;;;;8.50;6.30;;;;;;;10.04;75.66;98705.52;226130;1274;22563;-75
2023/06/13 23:24:21;;;;;;;7.90;6.80;;;;;;;9.98;75.93;98704.86;226186;1278;25414;-76
2023/06/13 23:29:23;;;;;;;11.30;8.20;;;;;;;9.92;76.23;98701.61;225965;1278;22616;-75
2023/06/13 23:34:33;;;;;;;11.10;8.80;;;;;;;9.85;76.36;98700.17;225993;1277;22522;-76
2023/06/13 23:39:42;;;;;;;11.00;8.70;;;;;;;9.78;76.45;98701.91;225962;1278;22547;-76
2023/06/13 23:44:48;;;;;;;14.00;10.40;;;;;;;9.72;76.91;98708.98;226197;1277;22542;-76
2023/06/13 23:49:56;;;;;;;13.70;10.40;;;;;;;9.68;76.99;98707.99;226001;1277;22579;-77
2023/06/13 23:55:08;;;;;;;15.20;11.30;;;;;;;9.65;77.31;98709.41;226188;1278;22555;-76
